New Lenox, Illinois
Current Conditions -  °F | °C
As of 3:15 AM on Wednesday 22 Oct 2014 (Local Time) from KLOT Reporting Station
Clear Clear  
Wind Chill: 37°   Ceiling: Unl
Heat Index: 37°   Visibility: 10mi
Dew Point: 37°   Wind: 0mph
Humidity: 98%   Direction: NA
Pressure: 30.29"   Gusts: NA
Location:  41.51°N, 87.97°W
Report Text: KLOT 220815Z AUTO 00000KT 10SM CLR 03/03 A3029 RMK AO2 T00300027
Loading
Personal Weather Stations






























Interactive Weather Map
Tropical Storm Tracking
New forecast layout! Learn more

10-Day Weather Forecast

Advertisements
Track Severe Weather on mobile